Terminal Aerodrome Forecast
Issued by NWS Shreveport, LA

Home | Current Version | Previous Version | Text Only | Print | Product List | Glossary On
Versions: 1 2 3 4 5 6 7 8 9 10 11 12 13 14 15 16 17 18
130
FTUS44 KSHV 180524
TAFELD
TAF
KELD 180524Z 1806/1906 00000KT P6SM FEW045 SCT250
     FM180900 VRB04KT P6SM BKN040 BKN180 BKN250
      TEMPO 1809/1813 00000KT 5SM BR
     FM181800 22008KT P6SM SCT045 BKN150 BKN250
     FM190000 19033KT P6SM SCT250=

USA.gov is the U.S. government's official web portal to all federal, state and local government web resources and services.